Search for airport 
image banner adimage banner adimage banner ad
image banner ad

KDEH - Decorah Muni

Located in Decorah, United States

ICAO - DEH, IATA - DEH

Data provided by Airmate  

General information

Coordinates: N43°16'32" W91°44'22"
Elevation is 1158 feet MSL.
Magnetic variation is 01° East
View others Airports in Iowa

Operational data

Special qualification required
Current time UTC:
Current local time:
Weather
METAR: KDEH 150955Z AUTO 00000KT 10SM FEW045 FEW055 14/13 A3009 RMK AO2
View NOTAMs / SUP AIP / TFR affecting this airport [VIEW]
Communications frequencies: [VIEW]

Runways:

RWY identifierQFULength (ft)Width (ft)SurfaceLDA (ft)
11115°400175CONC
29295°400175CONC

Airport contact information

Address: Decorah United States

Other aviation service providers

Flight schools

Connell Flying Service

Connell Flying Service

Satellite view of KDEH